sensor_id;sensor_type;location;lat;lon;timestamp;pressure;altitude;pressure_sealevel;temperature;humidity
15558;BME280;7880;50.110;9.372;2023-03-03T00:05:03;-0.38316795220598576;;;-0.5;100.0
15558;BME280;7880;50.110;9.372;2023-03-03T00:10:10;-0.6100429210287984;;;-0.687;100.0
15558;BME280;7880;50.110;9.372;2023-03-03T00:15:18;-0.6352512145182118;;;-0.75;100.0
15558;BME280;7880;50.110;9.372;2023-03-03T00:20:34;-0.41845965273096225;;;-0.5;100.0
15558;BME280;7880;50.110;9.372;2023-03-03T00:25:28;-0.46887634302838704;;;-0.5;100.0
15558;BME280;7880;50.110;9.372;2023-03-03T00:30:27;-0.7713758736324963;;;-0.75;100.0
15558;BME280;7880;50.110;9.372;2023-03-03T00:35:31;-0.8318756540247705;;;-0.875;100.0
15558;BME280;7880;50.110;9.372;2023-03-03T00:40:35;-0.7260010108351708;;;-0.75;100.0
15558;BME280;7880;50.110;9.372;2023-03-03T00:45:42;-0.6402928723429795;;;-0.75;100.0
15558;BME280;7880;50.110;9.372;2023-03-03T00:50:42;-0.8822921056707855;;;-0.875;100.0
15558;BME280;7880;50.110;9.372;2023-03-03T00:55:44;-0.9226252460328397;;;-1.0;100.0
15558;BME280;7880;50.110;9.372;2023-03-03T01:00:49;-0.7612925728259142;;;-0.812;100.0
15558;BME280;7880;50.110;9.372;2023-03-03T01:05:54;-0.7612925728259142;;;-0.875;100.0
15558;BME280;7880;50.110;9.372;2023-03-03T01:10:59;-0.9730416452919599;;;-1.0;100.0
15558;BME280;7880;50.110;9.372;2023-03-03T01:16:05;-0.7663342233747243;;;-0.875;100.0
15558;BME280;7880;50.110;9.372;2023-03-03T01:21:06;-0.8570838834857568;;;-0.937;100.0
15558;BME280;7880;50.110;9.372;2023-03-03T01:26:10;-0.8923753925075288;;;-0.937;100.0
15558;BME280;7880;50.110;9.372;2023-03-03T01:31:13;-0.872208817669889;;;-0.937;100.0
15558;BME280;7880;50.110;9.372;2023-03-03T01:36:22;-0.9175836045062169;;;-0.937;100.0
15558;BME280;7880;50.110;9.372;2023-03-03T01:41:21;-1.1747069512901362;;;-1.062;100.0
15558;BME280;7880;50.110;9.372;2023-03-03T01:46:33;-1.1696653243154287;;;-1.187;100.0
15558;BME280;7880;50.110;9.372;2023-03-03T01:51:33;-0.9427918092289473;;;-1.0;100.0
15558;BME280;7880;50.110;9.372;2023-03-03T01:56:35;-0.957916728570126;;;-0.937;100.0
15558;BME280;7880;50.110;9.372;2023-03-03T02:01:45;-0.9932081968465354;;;-0.937;100.0
15558;BME280;7880;50.110;9.372;2023-03-03T02:06:49;-1.3259556251985487;;;-1.25;100.0
15558;BME280;7880;50.110;9.372;2023-03-03T02:11:50;-1.2856226711010095;;;-1.375;100.0
15558;BME280;7880;50.110;9.372;2023-03-03T02:16:51;-1.1041241471597458;;;-1.187;100.0
15558;BME280;7880;50.110;9.372;2023-03-03T02:21:54;-1.1494988135062159;;;-1.125;100.0
15558;BME280;7880;50.110;9.372;2023-03-03T02:27:01;-1.215039956610417;;;-1.25;100.0
15558;BME280;7880;50.110;9.372;2023-03-03T02:32:11;-1.215039956610417;;;-1.312;100.0
15558;BME280;7880;50.110;9.372;2023-03-03T02:37:05;-1.2452896983770188;;;-1.187;100.0
15558;BME280;7880;50.110;9.372;2023-03-03T02:42:15;-1.5982025781588163;;;-1.5;100.0
15558;BME280;7880;50.110;9.372;2023-03-03T02:47:11;-1.53266172260046;;;-1.562;100.0
15558;BME280;7880;50.110;9.372;2023-03-03T02:52:17;-1.3763717916270253;;;-1.437;100.0
15558;BME280;7880;50.110;9.372;2023-03-03T02:57:24;-1.578036166302627;;;-1.562;100.0
15558;BME280;7880;50.110;9.372;2023-03-03T03:02:26;-1.4015798639273271;;;-1.5;100.0
15558;BME280;7880;50.110;9.372;2023-03-03T03:07:31;-1.3360388608125504;;;-1.312;100.0
15558;BME280;7880;50.110;9.372;2023-03-03T03:12:29;-1.522578509687446;;;-1.437;100.0
15558;BME280;7880;50.110;9.372;2023-03-03T03:17:44;-1.5074536881351377;;;-1.437;100.0
15558;BME280;7880;50.110;9.372;2023-03-03T03:22:38;-1.3965382500493433;;;-1.375;100.0
15558;BME280;7880;50.110;9.372;2023-03-03T03:27:41;-1.8149912115186453;;;-1.687;100.0
15558;BME280;7880;50.110;9.372;2023-03-03T03:32:45;-1.673826581146568;;;-1.687;100.0
15558;BME280;7880;50.110;9.372;2023-03-03T03:37:53;-1.5074536881351377;;;-1.5;100.0
15558;BME280;7880;50.110;9.372;2023-03-03T03:42:57;-1.69903456759057;;;-1.687;100.0
15558;BME280;7880;50.110;9.372;2023-03-03T03:47:57;-1.673826581146568;;;-1.687;100.0
15558;BME280;7880;50.110;9.372;2023-03-03T03:53:02;-1.608285782340681;;;-1.687;100.0
15558;BME280;7880;50.110;9.372;2023-03-03T03:58:12;-1.633493787702173;;;-1.625;100.0
15558;BME280;7880;50.110;9.372;2023-03-03T04:03:10;-1.5982025781588163;;;-1.5;100.0
15558;BME280;7880;50.110;9.372;2023-03-03T04:08:14;-1.7746584832668304;;;-1.75;100.0
15558;BME280;7880;50.110;9.372;2023-03-03T04:13:22;-1.7544921121560038;;;-1.75;100.0
15558;BME280;7880;50.110;9.372;2023-03-03T04:18:24;-1.8906150267866906;;;-1.875;100.0
15558;BME280;7880;50.110;9.372;2023-03-03T04:23:32;-1.6385353879013564;;;-1.625;100.0
15558;BME280;7880;50.110;9.372;2023-03-03T04:28:31;-1.603244180395268;;;-1.5;100.0
15558;BME280;7880;50.110;9.372;2023-03-03T04:33:38;-1.436871152924141;;;-1.437;100.0
15558;BME280;7880;50.110;9.372;2023-03-03T04:38:39;-1.3057891504780854;;;-1.187;100.0
15558;BME280;7880;50.110;9.372;2023-03-03T04:43:43;-1.2553729433042462;;;-1.125;100.0
15558;BME280;7880;50.110;9.372;2023-03-03T04:48:45;-1.199915081798099;;;-1.062;100.0
15558;BME280;7880;50.110;9.372;2023-03-03T04:53:49;-1.4066214775142725;;;-1.25;100.0
15558;BME280;7880;50.110;9.372;2023-03-03T04:58:54;-1.4116630908101797;;;-1.312;100.0
15558;BME280;7880;50.110;9.372;2023-03-03T05:03:57;-1.2503313209861517;;;-1.125;100.0
15558;BME280;7880;50.110;9.372;2023-03-03T05:09:01;-1.578036166302627;;;-1.375;100.0
15558;BME280;7880;50.110;9.372;2023-03-03T05:14:07;-1.7393673307669815;;;-1.625;100.0
15558;BME280;7880;50.110;9.372;2023-03-03T05:19:09;-1.3763717916270253;;;-1.375;100.0
15558;BME280;7880;50.110;9.372;2023-03-03T05:24:13;-1.4620792077621445;;;-1.375;100.0
15558;BME280;7880;50.110;9.372;2023-03-03T05:29:40;-1.5528281449340284;;;-1.312;100.0
15558;BME280;7880;50.110;9.372;2023-03-03T05:34:26;-1.2856226711010095;;;-1.187;100.0
15558;BME280;7880;50.110;9.372;2023-03-03T05:39:25;-1.346122095262399;;;-1.187;100.0
15558;BME280;7880;50.110;9.372;2023-03-03T05:44:19;-1.3814134066691621;;;-1.25;100.0
15558;BME280;7880;50.110;9.372;2023-03-03T05:49:24;-1.4066214775142725;;;-1.25;100.0
15558;BME280;7880;50.110;9.372;2023-03-03T05:54:28;-1.2301648288033902;;;-1.125;100.0
15558;BME280;7880;50.110;9.372;2023-03-03T05:59:33;-1.2805810505291446;;;-1.187;100.0
15558;BME280;7880;50.110;9.372;2023-03-03T06:04:37;-1.3158723884203938;;;-1.187;100.0
15558;BME280;7880;50.110;9.372;2023-03-03T06:09:41;-1.4671208178566304;;;-1.375;100.0
15558;BME280;7880;50.110;9.372;2023-03-03T06:14:56;-1.4721624276600778;;;-1.375;100.0
15558;BME280;7880;50.110;9.372;2023-03-03T06:19:50;-1.477204037172487;;;-1.437;100.0
15558;BME280;7880;50.110;9.372;2023-03-03T06:24:54;-1.6234105864306911;;;-1.5;100.0
15558;BME280;7880;50.110;9.372;2023-03-03T06:29:57;-1.5477865397871937;;;-1.437;100.0
15558;BME280;7880;50.110;9.372;2023-03-03T06:35:09;-1.653660186752677;;;-1.562;100.0
15558;BME280;7880;50.110;9.372;2023-03-03T06:40:07;-1.522578509687446;;;-1.437;100.0
15558;BME280;7880;50.110;9.372;2023-03-03T06:45:17;-1.4671208178566304;;;-1.375;100.0
15558;BME280;7880;50.110;9.372;2023-03-03T06:50:17;-1.4721624276600778;;;-1.375;100.0
15558;BME280;7880;50.110;9.372;2023-03-03T06:55:22;-1.4570375973766203;;;-1.375;100.0
15558;BME280;7880;50.110;9.372;2023-03-03T07:01:16;-1.3562053285480942;;;-1.25;100.0
15558;BME280;7880;50.110;9.372;2023-03-03T07:06:15;-1.295705911371624;;;-1.187;100.0
15558;BME280;7880;50.110;9.372;2023-03-03T07:11:13;-1.2755394296662417;;;-1.125;100.0
15558;BME280;7880;50.110;9.372;2023-03-03T07:16:16;-1.1041241471597458;;;-1.0;100.0
15558;BME280;7880;50.110;9.372;2023-03-03T07:21:20;-0.9932081968465354;;;-0.875;100.0
15558;BME280;7880;50.110;9.372;2023-03-03T07:26:25;-0.9680000066757202;;;-0.875;100.0
15558;BME280;7880;50.110;9.372;2023-03-03T07:31:30;-0.7562509219860658;;;-0.625;100.0
15558;BME280;7880;50.110;9.372;2023-03-03T07:36:40;-0.655417844071053;;;-0.562;100.0
15558;BME280;7880;50.110;9.372;2023-03-03T07:41:34;-0.5898762809985783;;;-0.437;100.0
15558;BME280;7880;50.110;9.372;2023-03-03T07:46:43;-0.49912634323700333;;;-0.375;100.0
15558;BME280;7880;50.110;9.372;2023-03-03T07:51:53;-0.39325129666831343;;;-0.312;100.0
15558;BME280;7880;50.110;9.372;2023-03-03T07:56:47;-0.3277095368539449;;;-0.187;100.0
15558;BME280;7880;50.110;9.372;2023-03-03T08:01:56;-0.19158418623264878;;;-0.062;100.0
15558;BME280;7880;50.110;9.372;2023-03-03T08:07:01;0.05041696096304804;;;0.125;100.0
15558;BME280;7880;50.110;9.372;2023-03-03T08:12:18;0.03529186961823143;;;0.187;100.0
15558;BME280;7880;50.110;9.372;2023-03-03T08:17:13;0.015125085233012214;;;0.187;100.0
15558;BME280;7880;50.110;9.372;2023-03-03T08:22:12;0.1512509702006355;;;0.25;100.0
15558;BME280;7880;50.110;9.372;2023-03-03T08:27:15;0.21679313863278366;;;0.375;100.0
15558;BME280;7880;50.110;9.372;2023-03-03T08:32:16;0.36804448427283204;;;0.562;100.0
15558;BME280;7880;50.110;9.372;2023-03-03T08:37:21;0.5747550802538172;;;0.75;100.0
15558;BME280;7880;50.110;9.372;2023-03-03T08:42:23;0.6755896948510781;;;0.875;100.0
15558;BME280;7880;50.110;9.372;2023-03-03T08:47:27;0.7007983666902874;;;0.937;100.0
15558;BME280;7880;50.110;9.372;2023-03-03T08:52:31;0.9125514973944518;;;1.062;100.0
15558;BME280;7880;50.110;9.372;2023-03-03T08:57:34;0.9579272350529209;;;1.125;100.0
15558;BME280;7880;50.110;9.372;2023-03-03T09:02:38;1.1192633820930495;;;1.312;100.0
15558;BME280;7880;50.110;9.372;2023-03-03T09:07:44;1.3763934824208264;;;1.625;100.0
15558;BME280;7880;50.110;9.372;2023-03-03T09:12:49;1.5931900375522674;;;1.812;100.0
15558;BME280;7880;50.110;9.372;2023-03-03T09:17:53;1.6536914978176356;;;1.937;100.0
15558;BME280;7880;50.110;9.372;2023-03-03T09:22:59;1.7746945440769195;;;2.062;100.0
15558;BME280;7880;50.110;9.372;2023-03-03T09:28:00;1.885614150413312;;;2.125;100.0
15558;BME280;7880;50.110;9.372;2023-03-03T09:33:41;2.087286522821523;;;2.375;100.0
15558;BME280;7880;50.110;9.372;2023-03-03T09:38:27;2.3141684983915183;;;2.625;100.0
15558;BME280;7880;50.110;9.372;2023-03-03T09:43:35;2.455339802853996;;;2.812;100.0
15558;BME280;7880;50.110;9.372;2023-03-03T09:48:41;2.66709718737402;;;2.937;100.0
15558;BME280;7880;50.110;9.372;2023-03-03T09:53:46;3.1006972432660405;;;3.312;100.0
15558;BME280;7880;50.110;9.372;2023-03-03T09:58:54;3.483880479639629;;;3.687;100.0
15558;BME280;7880;50.110;9.372;2023-03-03T10:03:59;3.3578331768745557;;;3.687;100.0
15558;BME280;7880;50.110;9.372;2023-03-03T10:08:56;3.4132939676812386;;;3.75;100.0
15558;BME280;7880;50.110;9.372;2023-03-03T10:14:21;3.7359756308665966;;;4.0;100.0
15558;BME280;7880;50.110;9.372;2023-03-03T10:19:15;3.9830295849824324;;;4.25;100.0
15558;BME280;7880;50.110;9.372;2023-03-03T10:24:14;3.937652275717119;;;4.25;100.0
15558;BME280;7880;50.110;9.372;2023-03-03T10:29:21;3.9679038126079833;;;4.25;100.0
15558;BME280;7880;50.110;9.372;2023-03-03T10:34:25;4.184706800268032;;;4.437;100.0
15558;BME280;7880;50.110;9.372;2023-03-03T10:39:31;4.351090853434289;;;4.562;100.0
15558;BME280;7880;50.110;9.372;2023-03-03T10:44:36;4.295629467163235;;;4.562;100.0
15558;BME280;7880;50.110;9.372;2023-03-03T10:48:48;4.290587524703005;;;4.625;100.0
15558;BME280;7880;50.110;9.372;2023-03-03T10:53:44;4.139329386228928;;;4.562;100.0
15558;BME280;7880;50.110;9.372;2023-03-03T10:58:45;4.300671409914503;;;4.625;100.0
15558;BME280;7880;50.110;9.372;2023-03-03T11:04:39;4.406552274920978;;;4.687;100.0
15558;BME280;7880;50.110;9.372;2023-03-03T11:09:38;4.774615328019718;;;5.0;100.0
15558;BME280;7880;50.110;9.372;2023-03-03T11:14:30;4.845202940102899;;;5.187;100.0
15558;BME280;7880;50.110;9.372;2023-03-03T11:24:44;4.925874566618586;;;5.25;100.0
15558;BME280;7880;50.110;9.372;2023-03-03T11:29:50;5.117469978198642;;;5.375;100.0
15558;BME280;7880;50.110;9.372;2023-03-03T11:34:50;5.278813808650011;;;5.5;100.0
15558;BME280;7880;50.110;9.372;2023-03-03T11:40:12;5.3695698442461435;;;5.687;100.0
15558;BME280;7880;50.110;9.372;2023-03-03T11:44:56;5.404863883554936;;;5.75;100.0
15558;BME280;7880;50.110;9.372;2023-03-03T11:50:02;5.68721671141684;;;6.0;97.22436780488638
15558;BME280;7880;50.110;9.372;2023-03-03T11:55:13;5.843519562162692;;;6.062;100.0
15558;BME280;7880;50.110;9.372;2023-03-03T12:00:20;5.8536036266537845;;;6.187;100.0
15558;BME280;7880;50.110;9.372;2023-03-03T12:05:21;5.667048622015864;;;5.937;100.0
15558;BME280;7880;50.110;9.372;2023-03-03T12:10:20;5.576292277337052;;;5.812;100.0
15558;BME280;7880;50.110;9.372;2023-03-03T12:15:32;5.601502363622421;;;5.812;100.0
15558;BME280;7880;50.110;9.372;2023-03-03T12:20:30;5.798141286359169;;;5.937;100.0
15558;BME280;7880;50.110;9.372;2023-03-03T12:25:32;5.989738611225039;;;6.187;100.0
15558;BME280;7880;50.110;9.372;2023-03-03T12:30:41;5.863687692309031;;;6.125;100.0
15558;BME280;7880;50.110;9.372;2023-03-03T12:35:49;5.868729725573212;;;6.062;100.0
15558;BME280;7880;50.110;9.372;2023-03-03T12:40:47;5.878813792974688;;;6.125;100.0
15558;BME280;7880;50.110;9.372;2023-03-03T12:45:53;5.984696570975939;;;6.187;100.0
15558;BME280;7880;50.110;9.372;2023-03-03T12:50:56;6.025032901117811;;;6.25;100.0
15558;BME280;7880;50.110;9.372;2023-03-03T12:55:56;5.843519562162692;;;6.125;100.0
15558;BME280;7880;50.110;9.372;2023-03-03T13:01:09;5.904023966571549;;;6.125;100.0
15558;BME280;7880;50.110;9.372;2023-03-03T13:06:21;5.793099257169525;;;5.937;100.0
15558;BME280;7880;50.110;9.372;2023-03-03T13:11:19;6.019990858831443;;;6.25;100.0
15558;BME280;7880;50.110;9.372;2023-03-03T13:16:21;5.8536036266537845;;;6.062;100.0
15558;BME280;7880;50.110;9.372;2023-03-03T13:21:25;5.8536036266537845;;;6.062;100.0
15558;BME280;7880;50.110;9.372;2023-03-03T13:26:28;6.025032901117811;;;6.187;100.0
15558;BME280;7880;50.110;9.372;2023-03-03T13:31:34;6.030074943695217;;;6.125;100.0
15558;BME280;7880;50.110;9.372;2023-03-03T13:36:47;6.090579477325082;;;6.312;100.0
15558;BME280;7880;50.110;9.372;2023-03-03T13:41:45;6.31242979252711;;;6.437;100.0
15558;BME280;7880;50.110;9.372;2023-03-03T13:46:54;6.1157897120399864;;;6.312;100.0
15558;BME280;7880;50.110;9.372;2023-03-03T13:51:54;6.06032720527146;;;6.187;100.0
15558;BME280;7880;50.110;9.372;2023-03-03T13:57:10;6.151084052864462;;;6.312;100.0
15558;BME280;7880;50.110;9.372;2023-03-03T14:02:00;6.014948816836113;;;6.25;100.0
15558;BME280;7880;50.110;9.372;2023-03-03T14:07:09;6.1359579050506;;;6.312;100.0
15558;BME280;7880;50.110;9.372;2023-03-03T14:12:17;5.9191500742221255;;;6.125;100.0
15558;BME280;7880;50.110;9.372;2023-03-03T14:17:20;6.004864733718568;;;6.125;98.34510665170745
15558;BME280;7880;50.110;9.372;2023-03-03T14:22:27;6.014948816836113;;;6.125;93.18950955670974
15558;BME280;7880;50.110;9.372;2023-03-03T14:27:32;6.009906775131822;;;6.187;91.56299477651207
15558;BME280;7880;50.110;9.372;2023-03-03T14:32:28;5.979654531017877;;;6.125;90.31074399632715
15558;BME280;7880;50.110;9.372;2023-03-03T14:37:42;5.974612491350854;;;6.125;90.75042688189309
15558;BME280;7880;50.110;9.372;2023-03-03T14:42:45;6.014948816836113;;;6.187;87.01840925160721
15558;BME280;7880;50.110;9.372;2023-03-03T14:47:44;6.201504564494826;;;6.312;94.11030145081696
15558;BME280;7880;50.110;9.372;2023-03-03T14:53:04;6.0653692498861345;;;6.25;92.55422290395128
15558;BME280;7880;50.110;9.372;2023-03-03T14:57:51;6.125873807963217;;;6.25;95.50256736786324
15558;BME280;7880;50.110;9.372;2023-03-03T15:03:01;6.151084052864462;;;6.312;96.39599344357751
15558;BME280;7880;50.110;9.372;2023-03-03T15:08:07;6.100663570337929;;;6.25;95.14203130662027
15558;BME280;7880;50.110;9.372;2023-03-03T15:13:41;6.125873807963217;;;6.25;98.36273988814652
15558;BME280;7880;50.110;9.372;2023-03-03T15:18:26;6.019990858831443;;;6.125;98.07336356282248
15558;BME280;7880;50.110;9.372;2023-03-03T15:23:43;5.979654531017877;;;6.125;99.7210341981403
15558;BME280;7880;50.110;9.372;2023-03-03T15:28:42;6.019990858831443;;;6.187;99.44287381399373
15558;BME280;7880;50.110;9.372;2023-03-03T15:33:46;5.959486374096014;;;6.125;100.0
15558;BME280;7880;50.110;9.372;2023-03-03T15:38:51;5.959486374096014;;;6.125;100.0
15558;BME280;7880;50.110;9.372;2023-03-03T15:43:53;5.808225345611572;;;6.0;100.0
15558;BME280;7880;50.110;9.372;2023-03-03T15:49:04;5.803183315839851;;;5.937;100.0
15558;BME280;7880;50.110;9.372;2023-03-03T15:52:50;5.727552904188633;;;5.875;100.0
15558;BME280;7880;50.110;9.372;2023-03-03T15:57:52;5.813267375674331;;;5.937;100.0
15558;BME280;7880;50.110;9.372;2023-03-03T16:02:54;5.798141286359169;;;5.937;100.0
15558;BME280;7880;50.110;9.372;2023-03-03T16:08:09;5.833435498835752;;;5.937;100.0
15558;BME280;7880;50.110;9.372;2023-03-03T16:13:11;5.697300757863559;;;5.812;100.0
15558;BME280;7880;50.110;9.372;2023-03-03T16:18:11;5.591418328235159;;;5.687;100.0
15558;BME280;7880;50.110;9.372;2023-03-03T16:23:21;5.515788099938073;;;5.625;100.0
15558;BME280;7880;50.110;9.372;2023-03-03T16:28:16;5.339317821903387;;;5.437;100.0
15558;BME280;7880;50.110;9.372;2023-03-03T16:33:21;5.233435826213099;;;5.312;100.0
15558;BME280;7880;50.110;9.372;2023-03-03T16:38:29;5.2687298105156515;;;5.5;100.0
15558;BME280;7880;50.110;9.372;2023-03-03T16:43:31;5.011588251427748;;;5.125;100.0
15558;BME280;7880;50.110;9.372;2023-03-03T16:48:41;5.072092079580761;;;5.062;100.0
15558;BME280;7880;50.110;9.372;2023-03-03T16:53:45;4.804867154784733;;;4.875;100.0
15558;BME280;7880;50.110;9.372;2023-03-03T16:58:44;4.653608125733444;;;4.687;100.0
15558;BME280;7880;50.110;9.372;2023-03-03T17:03:54;4.633440274983878;;;4.625;100.0
15558;BME280;7880;50.110;9.372;2023-03-03T17:08:59;4.502349358616629;;;4.5;100.0
15558;BME280;7880;50.110;9.372;2023-03-03T17:14:02;4.361174745630706;;;4.312;100.0
15558;BME280;7880;50.110;9.372;2023-03-03T17:19:11;4.1897487366164565;;;4.25;100.0
15558;BME280;7880;50.110;9.372;2023-03-03T17:24:09;4.1242035867879165;;;4.062;100.0
15558;BME280;7880;50.110;9.372;2023-03-03T17:29:18;3.957819965813542;;;3.937;100.0
15558;BME280;7880;50.110;9.372;2023-03-03T17:34:17;3.937652275717119;;;3.875;100.0
15558;BME280;7880;50.110;9.372;2023-03-03T17:39:27;3.8569815618975554;;;3.75;100.0
15558;BME280;7880;50.110;9.372;2023-03-03T17:44:21;3.6401793876895683;;;3.562;100.0
15558;BME280;7880;50.110;9.372;2023-03-03T17:50:11;3.3074143067002297;;;3.187;100.0
15558;BME280;7880;50.110;9.372;2023-03-03T17:55:06;2.904064393043518;;;2.812;100.0
15558;BME280;7880;50.110;9.372;2023-03-03T18:00:08;2.7578505093290007;;;2.562;100.0
15558;BME280;7880;50.110;9.372;2023-03-03T18:05:18;2.657013490755344;;;2.437;100.0
15558;BME280;7880;50.110;9.372;2023-03-03T18:11:18;2.646929795300821;;;2.437;100.0
15558;BME280;7880;50.110;9.372;2023-03-03T18:16:08;2.430130624608137;;;2.25;100.0
15558;BME280;7880;50.110;9.372;2023-03-03T18:21:08;2.42508878983208;;;2.25;100.0
15558;BME280;7880;50.110;9.372;2023-03-03T18:26:40;2.0368683860637247;;;1.937;100.0
15558;BME280;7880;50.110;9.372;2023-03-03T18:31:23;2.0721610787382816;;;1.875;100.0
15558;BME280;7880;50.110;9.372;2023-03-03T18:36:36;1.961241235496709;;;1.812;100.0
15558;BME280;7880;50.110;9.372;2023-03-03T18:41:32;1.9461158132413403;;;1.75;100.0
15558;BME280;7880;50.110;9.372;2023-03-03T18:46:47;1.7646109504858032;;;1.562;100.0
15558;BME280;7880;50.110;9.372;2023-03-03T18:52:16;1.5024379257345573;;;1.437;100.0
15558;BME280;7880;50.110;9.372;2023-03-03T18:57:21;1.5780646790342872;;;1.437;100.0
15558;BME280;7880;50.110;9.372;2023-03-03T19:02:13;1.6133571863174438;;;1.437;100.0
15558;BME280;7880;50.110;9.372;2023-03-03T19:07:15;1.4318530150689184;;;1.375;100.0
15558;BME280;7880;50.110;9.372;2023-03-03T19:12:15;1.371351708471775;;;1.187;100.0
15558;BME280;7880;50.110;9.372;2023-03-03T19:17:48;1.351184615585953;;;1.125;100.0
15558;BME280;7880;50.110;9.372;2023-03-03T19:22:41;1.3864770311920438;;;1.25;100.0
15558;BME280;7880;50.110;9.372;2023-03-03T19:27:38;1.3461428430920932;;;1.187;100.0
15558;BME280;7880;50.110;9.372;2023-03-03T19:32:47;1.4268112379184459;;;1.25;100.0
15558;BME280;7880;50.110;9.372;2023-03-03T19:37:48;1.452020126581192;;;1.375;100.0
15558;BME280;7880;50.110;9.372;2023-03-03T19:42:54;1.2049733314255717;;;1.125;100.0
15558;BME280;7880;50.110;9.372;2023-03-03T19:48:02;0.9377602376276627;;;0.812;100.0
15558;BME280;7880;50.110;9.372;2023-03-03T19:53:05;0.9428019865474198;;;0.75;100.0
15558;BME280;7880;50.110;9.372;2023-03-03T19:58:17;0.7965913860360161;;;0.625;100.0
15558;BME280;7880;50.110;9.372;2023-03-03T20:03:31;0.4940874723950401;;;0.5;100.0
15558;BME280;7880;50.110;9.372;2023-03-03T20:08:21;0.9629689851368312;;;0.75;100.0
15558;BME280;7880;50.110;9.372;2023-03-03T20:13:31;0.8318835775426123;;;0.75;100.0
15558;BME280;7880;50.110;9.372;2023-03-03T20:19:06;0.5545881713042036;;;0.5;100.0
15558;BME280;7880;50.110;9.372;2023-03-03T20:24:15;0.5848385364748537;;;0.375;100.0
15558;BME280;7880;50.110;9.372;2023-03-03T20:29:09;0.5898802650219295;;;0.437;100.0
15558;BME280;7880;50.110;9.372;2023-03-03T20:34:08;0.25208509585354477;;;0.187;100.0
15558;BME280;7880;50.110;9.372;2023-03-03T20:39:08;0.1663760816270951;;;0.062;100.0
15558;BME280;7880;50.110;9.372;2023-03-03T20:44:18;0.005041694786632434;;;-0.062;100.0
15558;BME280;7880;50.110;9.372;2023-03-03T20:49:27;-0.08066707700490952;;;-0.187;100.0
15558;BME280;7880;50.110;9.372;2023-03-03T20:54:29;-0.0252084695675876;;;-0.187;100.0
15558;BME280;7880;50.110;9.372;2023-03-03T20:59:31;-0.13108396229799837;;;-0.25;100.0
15558;BME280;7880;50.110;9.372;2023-03-03T21:04:31;-0.04033354781568051;;;-0.25;100.0
15558;BME280;7880;50.110;9.372;2023-03-03T21:09:37;0.015125085233012214;;;-0.125;100.0
15558;BME280;7880;50.110;9.372;2023-03-03T21:14:39;0.10083395102992654;;;0.0;100.0
15558;BME280;7880;50.110;9.372;2023-03-03T21:19:44;0.015125085233012214;;;0.0;100.0
15558;BME280;7880;50.110;9.372;2023-03-03T21:24:50;-0.11595889976597391;;;-0.187;100.0
15558;BME280;7880;50.110;9.372;2023-03-03T21:30:11;-0.2016675528138876;;;-0.312;100.0
15558;BME280;7880;50.110;9.372;2023-03-03T21:35:04;-0.12100058756768703;;;-0.187;100.0
15558;BME280;7880;50.110;9.372;2023-03-03T21:40:12;-0.39829296846291984;;;-0.375;100.0
15558;BME280;7880;50.110;9.372;2023-03-03T21:45:09;-0.5697096363117453;;;-0.562;100.0
15558;BME280;7880;50.110;9.372;2023-03-03T21:50:11;-0.5092096743115689;;;-0.562;100.0
15558;BME280;7880;50.110;9.372;2023-03-03T21:55:17;-0.5293763329682406;;;-0.625;100.0
15558;BME280;7880;50.110;9.372;2023-03-03T22:00:20;-0.6503761871194002;;;-0.687;100.0
15558;BME280;7880;50.110;9.372;2023-03-03T22:05:26;-0.6150845803087577;;;-0.625;100.0
15558;BME280;7880;50.110;9.372;2023-03-03T22:10:32;-0.5596263122220989;;;-0.625;100.0
15558;BME280;7880;50.110;9.372;2023-03-03T22:15:35;-0.781459173274925;;;-0.812;100.0
15558;BME280;7880;50.110;9.372;2023-03-03T22:20:38;-0.6402928723429795;;;-0.687;100.0
15558;BME280;7880;50.110;9.372;2023-03-03T22:25:43;-0.731042663421249;;;-0.812;100.0
15558;BME280;7880;50.110;9.372;2023-03-03T22:30:47;-1.1192490385612472;;;-1.062;100.0
15558;BME280;7880;50.110;9.372;2023-03-03T22:35:52;-1.1041241471597458;;;-1.187;100.0
15558;BME280;7880;50.110;9.372;2023-03-03T22:40:57;-1.12933229804039;;;-1.187;100.0
15558;BME280;7880;50.110;9.372;2023-03-03T22:46:01;-1.073874356498709;;;-1.25;100.0
15558;BME280;7880;50.110;9.372;2023-03-03T22:51:04;-1.1242906684463378;;;-1.187;100.0
15558;BME280;7880;50.110;9.372;2023-03-03T22:56:08;-1.295705911371624;;;-1.437;100.0
15558;BME280;7880;50.110;9.372;2023-03-03T23:01:12;-1.1797485779738053;;;-1.312;100.0
15558;BME280;7880;50.110;9.372;2023-03-03T23:06:25;-1.1394155563553796;;;-1.187;100.0
15558;BME280;7880;50.110;9.372;2023-03-03T23:11:24;-0.8217923602031079;;;-0.875;100.0
15558;BME280;7880;50.110;9.372;2023-03-03T23:16:29;-0.8117090652172919;;;-0.75;100.0
15558;BME280;7880;50.110;9.372;2023-03-03T23:21:33;-0.8217923602031079;;;-0.75;100.0
15558;BME280;7880;50.110;9.372;2023-03-03T23:26:46;-0.8117090652172919;;;-0.687;100.0
15558;BME280;7880;50.110;9.372;2023-03-03T23:31:38;-0.7663342233747243;;;-0.75;100.0
15558;BME280;7880;50.110;9.372;2023-03-03T23:36:42;-0.7865008226595819;;;-0.75;100.0
15558;BME280;7880;50.110;9.372;2023-03-03T23:42:07;-0.7007927435392048;;;-0.75;100.0
15558;BME280;7880;50.110;9.372;2023-03-03T23:46:52;-0.7058343975804746;;;-0.687;100.0
15558;BME280;7880;50.110;9.372;2023-03-03T23:51:57;-0.7058343975804746;;;-0.625;100.0